createdAt,value
2022-11-22T00:01:11.258Z,98369.69
2022-11-22T00:03:42.680Z,98311.78
2022-11-22T00:06:16.381Z,98359.66
2022-11-22T00:08:59.965Z,98357.78
2022-11-22T00:11:36.538Z,98321.59
2022-11-22T00:14:12.342Z,98331.34
2022-11-22T00:16:44.523Z,98312.75
2022-11-22T00:19:18.997Z,98348.81
2022-11-22T00:21:51.899Z,98301.41
2022-11-22T00:24:27.468Z,98322.72
2022-11-22T00:26:59.992Z,98317.66
2022-11-22T00:29:31.645Z,98329.25
2022-11-22T00:32:06.118Z,98318.78
2022-11-22T00:34:35.593Z,98321.00
2022-11-22T00:37:04.970Z,98282.41
2022-11-22T00:39:34.634Z,98308.31
2022-11-22T00:42:05.725Z,98306.25
2022-11-22T00:44:41.894Z,98270.47
2022-11-22T00:47:10.808Z,98268.75
2022-11-22T00:49:39.654Z,98303.63
2022-11-22T00:52:09.042Z,98271.59
2022-11-22T00:54:38.112Z,98296.97
2022-11-22T00:57:07.342Z,98294.53
2022-11-22T00:59:36.848Z,98252.38
2022-11-22T01:02:10.325Z,98283.78
2022-11-22T01:04:39.013Z,98298.91
2022-11-22T01:07:08.361Z,98301.88
2022-11-22T01:09:37.519Z,98295.78
2022-11-22T01:12:07.136Z,98280.44
2022-11-22T01:14:36.603Z,98312.19
2022-11-22T01:17:07.514Z,98305.56
2022-11-22T01:19:36.620Z,98306.34
2022-11-22T01:22:06.427Z,98306.41
2022-11-22T01:24:35.666Z,98305.59
2022-11-22T01:27:05.410Z,98278.44
2022-11-22T01:29:34.789Z,98309.59
2022-11-22T01:32:10.472Z,98326.38
2022-11-22T01:34:39.745Z,98283.59
2022-11-22T01:37:09.170Z,98270.72
2022-11-22T01:39:38.665Z,98283.28
2022-11-22T01:42:07.967Z,98333.16
2022-11-22T01:44:38.671Z,98337.06
2022-11-22T01:47:13.940Z,98311.41
2022-11-22T01:49:48.627Z,98328.13
2022-11-22T01:52:21.072Z,98328.38
2022-11-22T01:54:56.488Z,98350.44
2022-11-22T01:57:33.441Z,98347.63
2022-11-22T02:00:13.968Z,98321.78
2022-11-22T02:02:49.072Z,98291.56
2022-11-22T02:05:24.888Z,98303.97
2022-11-22T02:08:33.750Z,98291.97
2022-11-22T02:11:22.078Z,98288.13
2022-11-22T02:13:54.664Z,98352.19
2022-11-22T02:16:40.034Z,98364.59
2022-11-22T02:19:28.863Z,98344.81
2022-11-22T02:22:14.248Z,98348.38
2022-11-22T02:24:56.324Z,98314.97
2022-11-22T02:27:33.787Z,98296.97
2022-11-22T02:30:04.349Z,98345.09
2022-11-22T02:32:46.024Z,98298.84
2022-11-22T02:35:27.058Z,98351.72
2022-11-22T02:38:02.579Z,98360.63
2022-11-22T02:40:41.467Z,98338.19
2022-11-22T02:43:17.108Z,98364.75
2022-11-22T02:45:53.752Z,98332.03
2022-11-22T02:48:30.340Z,98377.31
2022-11-22T02:51:05.387Z,98378.69
2022-11-22T02:53:42.194Z,98378.06
2022-11-22T02:56:15.510Z,98386.00
2022-11-22T02:58:49.101Z,98348.00
2022-11-22T03:01:20.746Z,98352.06
2022-11-22T03:03:53.712Z,98318.16
2022-11-22T03:06:24.390Z,98322.25
2022-11-22T03:08:58.173Z,98342.75
2022-11-22T03:11:29.846Z,98365.31
2022-11-22T03:14:02.687Z,98356.81
2022-11-22T03:16:34.759Z,98380.66
2022-11-22T03:19:13.003Z,98363.69
2022-11-22T03:21:45.495Z,98394.03
2022-11-22T03:24:22.095Z,98386.75
2022-11-22T03:26:54.278Z,98345.06
2022-11-22T03:29:28.759Z,98360.44
2022-11-22T03:32:00.628Z,98335.75
2022-11-22T03:34:35.090Z,98330.03
2022-11-22T03:37:08.061Z,98358.16
2022-11-22T03:39:40.766Z,98355.94
2022-11-22T03:42:13.630Z,98370.09
2022-11-22T03:44:50.741Z,98401.19
2022-11-22T03:47:19.147Z,98348.16
2022-11-22T03:49:47.043Z,98405.91
2022-11-22T03:52:15.739Z,98399.38
2022-11-22T03:54:44.021Z,98409.28
2022-11-22T03:57:12.584Z,98412.94
2022-11-22T03:59:40.621Z,98376.88
2022-11-22T04:02:10.044Z,98417.72
2022-11-22T04:04:38.049Z,98414.31
2022-11-22T04:07:06.012Z,98407.66
2022-11-22T04:09:34.418Z,98409.56
2022-11-22T04:12:02.386Z,98395.78
2022-11-22T04:14:47.759Z,98411.56
2022-11-22T04:17:37.576Z,98416.28
2022-11-22T04:20:20.045Z,98385.50
2022-11-22T04:22:56.524Z,98413.91
2022-11-22T05:27:51.556Z,98444.31
2022-11-22T05:30:27.610Z,98403.31
2022-11-22T05:33:25.628Z,98436.28
2022-11-22T05:36:05.687Z,98456.09
2022-11-22T05:38:38.079Z,98460.63
2022-11-22T05:41:10.219Z,98454.50
2022-11-22T05:43:55.460Z,98438.28
2022-11-22T05:46:29.312Z,98474.44
2022-11-22T05:49:05.221Z,98422.69
2022-11-22T05:51:54.184Z,98474.44
2022-11-22T05:54:31.622Z,98472.47
2022-11-22T05:57:04.291Z,98476.19
2022-11-22T05:59:44.355Z,98418.72
2022-11-22T06:02:15.676Z,98480.44
2022-11-22T06:04:47.969Z,98494.13
2022-11-22T06:07:30.119Z,98441.75
2022-11-22T06:09:58.407Z,98473.50
2022-11-22T06:12:26.459Z,98500.38
2022-11-22T06:14:54.436Z,98502.19
2022-11-22T06:17:22.626Z,98502.16
2022-11-22T06:19:50.832Z,98515.53
2022-11-22T06:22:20.789Z,98492.06
2022-11-22T06:24:54.919Z,98517.00
2022-11-22T06:27:23.340Z,98512.44
2022-11-22T06:29:51.506Z,98536.56
2022-11-22T06:32:19.956Z,98487.31
2022-11-22T06:34:49.359Z,98484.38
2022-11-22T06:37:17.557Z,98493.28
2022-11-22T06:39:46.956Z,98534.28
2022-11-22T06:42:15.003Z,98554.09
2022-11-22T06:44:43.204Z,98541.00
2022-11-22T06:47:11.656Z,98553.84
2022-11-22T06:49:39.749Z,98547.78
2022-11-22T06:52:07.930Z,98537.31
2022-11-22T06:54:37.754Z,98542.06
2022-11-22T06:57:07.372Z,98565.78
2022-11-22T06:59:36.003Z,98534.25
2022-11-22T07:02:06.616Z,98542.69
2022-11-22T07:04:35.109Z,98577.06
2022-11-22T07:07:03.525Z,98513.66
2022-11-22T07:09:31.965Z,98576.19
2022-11-22T07:12:00.456Z,98579.44
2022-11-22T07:14:29.848Z,98572.94
2022-11-22T07:16:57.980Z,98567.13
2022-11-22T07:19:26.014Z,98569.81
2022-11-22T07:21:53.914Z,98539.59
2022-11-22T07:24:21.822Z,98570.13
2022-11-22T07:26:49.842Z,98601.28
2022-11-22T07:29:17.854Z,98596.44
2022-11-22T07:31:47.575Z,98593.59
2022-11-22T07:34:15.865Z,98586.34
2022-11-22T07:36:43.996Z,98603.41
2022-11-22T07:39:12.505Z,98587.41
2022-11-22T07:41:40.521Z,98566.34
2022-11-22T07:44:08.577Z,98591.56
2022-11-22T07:46:36.651Z,98561.06
2022-11-22T07:49:08.004Z,98623.34
2022-11-22T07:51:36.479Z,98591.75
2022-11-22T07:54:07.900Z,98598.69
2022-11-22T07:56:36.009Z,98626.69
2022-11-22T07:59:04.077Z,98616.06
2022-11-22T08:01:32.285Z,98634.78
2022-11-22T08:04:00.921Z,98629.06
2022-11-22T08:06:30.671Z,98648.53
2022-11-22T08:09:02.240Z,98607.56
2022-11-22T08:11:30.913Z,98616.53
2022-11-22T08:13:58.919Z,98645.44
2022-11-22T08:16:26.982Z,98644.25
2022-11-22T08:18:54.942Z,98642.25
2022-11-22T08:21:23.430Z,98635.19
2022-11-22T08:23:52.664Z,98636.91
2022-11-22T08:26:21.164Z,98642.81
2022-11-22T08:28:49.354Z,98652.63
2022-11-22T08:31:19.691Z,98660.66
2022-11-22T08:33:48.188Z,98666.09
2022-11-22T08:36:16.499Z,98680.16
2022-11-22T08:38:44.587Z,98673.53
2022-11-22T08:41:14.307Z,98668.94
2022-11-22T08:43:42.509Z,98676.22
2022-11-22T08:46:10.791Z,98683.00
2022-11-22T08:48:39.650Z,98683.53
2022-11-22T08:51:10.329Z,98677.75
2022-11-22T08:53:49.389Z,98671.59
2022-11-22T08:56:18.997Z,98662.81
2022-11-22T08:58:46.972Z,98660.91
2022-11-22T09:01:17.420Z,98663.78
2022-11-22T09:03:46.226Z,98676.59
2022-11-22T09:09:30.501Z,98666.78
2022-11-22T09:11:58.244Z,98657.78
2022-11-22T09:14:27.042Z,98662.47
2022-11-22T09:16:55.768Z,98662.19
2022-11-22T09:19:27.590Z,98654.34
2022-11-22T09:21:56.232Z,98645.47
2022-11-22T09:24:24.170Z,98670.63
2022-11-22T09:26:52.443Z,98628.34
2022-11-22T09:29:21.751Z,98670.78
2022-11-22T09:31:52.990Z,98669.41
2022-11-22T09:34:21.092Z,98673.59
2022-11-22T09:36:49.158Z,98674.13
2022-11-22T09:39:17.176Z,98646.44
2022-11-22T09:42:12.426Z,98684.63
2022-11-22T09:44:54.381Z,98673.16
2022-11-22T09:47:35.975Z,98674.66
2022-11-22T09:50:15.793Z,98636.63
2022-11-22T09:52:49.161Z,98612.88
2022-11-22T09:55:25.825Z,98672.56
2022-11-22T09:58:07.711Z,98636.22
2022-11-22T10:00:37.271Z,98648.47
2022-11-22T10:03:13.748Z,98675.41
2022-11-22T10:05:51.132Z,98676.16
2022-11-22T10:08:33.819Z,98656.78
2022-11-22T10:11:05.003Z,98668.13
2022-11-22T10:21:18.678Z,98650.53
2022-11-22T10:23:59.818Z,98621.94
2022-11-22T10:30:07.109Z,98602.34
2022-11-22T10:36:07.115Z,98653.72
2022-11-22T10:39:04.183Z,98633.88
2022-11-22T10:41:44.729Z,98626.41
2022-11-22T10:44:27.678Z,98660.59
2022-11-22T10:47:34.552Z,98610.50
2022-11-22T10:50:51.782Z,98674.28
2022-11-22T10:54:03.298Z,98606.09
2022-11-22T10:57:28.222Z,98675.09
2022-11-22T11:00:40.974Z,98638.63
2022-11-22T11:03:44.301Z,98666.09
2022-11-22T11:06:50.028Z,98669.25
2022-11-22T11:10:29.325Z,98591.53
2022-11-22T11:13:24.451Z,98660.88
2022-11-22T11:16:01.583Z,98661.16
2022-11-22T11:18:42.542Z,98663.75
2022-11-22T11:21:18.315Z,98655.31
2022-11-22T11:24:01.701Z,98631.31
2022-11-22T11:26:37.902Z,98656.16
2022-11-22T11:36:53.720Z,98661.44
2022-11-22T11:39:41.916Z,98641.94
2022-11-22T11:42:34.199Z,98601.16
2022-11-22T11:45:34.651Z,98625.25
2022-11-22T11:48:09.048Z,98611.22
2022-11-22T11:50:41.023Z,98650.06
2022-11-22T11:53:33.025Z,98613.41
2022-11-22T11:56:58.735Z,98608.34
2022-11-22T11:59:55.622Z,98615.22
2022-11-22T12:02:34.855Z,98643.69
2022-11-22T12:05:51.934Z,98626.94
2022-11-22T12:09:05.508Z,98592.06
2022-11-22T12:15:10.156Z,98636.75
2022-11-22T12:17:50.873Z,98614.25
2022-11-22T12:20:36.520Z,98615.72
2022-11-22T12:23:37.775Z,98562.06
2022-11-22T12:26:12.556Z,98598.34
2022-11-22T12:29:04.607Z,98578.06
2022-11-22T12:31:45.600Z,98611.66
2022-11-22T12:34:30.572Z,98586.75
2022-11-22T12:37:12.658Z,98602.38
2022-11-22T12:40:08.474Z,98573.38
2022-11-22T12:42:51.102Z,98577.47
2022-11-22T12:45:31.030Z,98578.78
2022-11-22T12:48:11.848Z,98623.31
2022-11-22T12:50:46.929Z,98611.03
2022-11-22T12:54:00.291Z,98588.88
2022-11-22T12:56:38.793Z,98618.19
2022-11-22T12:59:25.403Z,98590.69
2022-11-22T13:02:03.348Z,98585.94
2022-11-22T13:04:39.463Z,98594.28
2022-11-22T13:07:16.861Z,98609.59
2022-11-22T13:09:52.691Z,98605.34
2022-11-22T13:12:27.414Z,98603.47
2022-11-22T13:14:57.138Z,98591.22
2022-11-22T13:17:32.245Z,98589.34
2022-11-22T13:20:05.958Z,98585.94
2022-11-22T13:22:44.834Z,98576.19
2022-11-22T13:25:33.557Z,98601.63
2022-11-22T13:28:07.438Z,98598.13
2022-11-22T13:30:53.787Z,98568.34
2022-11-22T13:33:51.483Z,98607.66
2022-11-22T13:40:35.144Z,98590.75
2022-11-22T13:43:56.875Z,98601.63
2022-11-22T13:46:58.074Z,98586.19
2022-11-22T13:50:00.114Z,98552.84
2022-11-22T13:52:54.662Z,98563.00
2022-11-22T13:59:56.546Z,98596.19
2022-11-22T14:02:29.300Z,98583.03
2022-11-22T14:05:30.153Z,98541.09
2022-11-22T14:08:08.757Z,98562.75
2022-11-22T14:11:05.993Z,98549.94
2022-11-22T14:16:52.088Z,98572.91
2022-11-22T14:19:40.896Z,98554.19
2022-11-22T14:22:20.343Z,98585.81
2022-11-22T14:25:23.708Z,98585.47
2022-11-22T14:27:57.732Z,98551.84
2022-11-22T14:30:39.936Z,98583.94
2022-11-22T14:33:16.687Z,98577.38
2022-11-22T14:36:16.240Z,98582.72
2022-11-22T14:38:46.010Z,98583.81
2022-11-22T14:41:41.716Z,98587.69
2022-11-22T14:44:14.044Z,98576.50
2022-11-22T14:46:54.974Z,98588.91
2022-11-22T14:49:32.763Z,98578.22
2022-11-22T14:52:02.681Z,98594.28
2022-11-22T14:54:42.161Z,98609.44
2022-11-22T14:57:20.769Z,98602.72
2022-11-22T15:00:09.702Z,98602.31
2022-11-22T15:03:21.340Z,98606.84
2022-11-22T15:09:23.398Z,98554.53
2022-11-22T15:09:46.444Z,98590.53
2022-11-22T15:12:38.739Z,98599.50
2022-11-22T15:57:29.005Z,98683.69
2022-11-22T15:59:59.460Z,98648.31
2022-11-22T16:02:37.526Z,98632.50
2022-11-22T16:06:07.398Z,98641.91
2022-11-22T16:08:07.910Z,98704.81
2022-11-22T16:10:44.076Z,98677.41
2022-11-22T16:13:36.954Z,98644.97
2022-11-22T16:16:20.246Z,98697.00
2022-11-22T16:18:50.855Z,98682.47
2022-11-22T16:21:25.238Z,98705.44
2022-11-22T16:24:17.480Z,98682.25
2022-11-22T16:26:56.357Z,98696.88
2022-11-22T16:29:32.311Z,98699.47
2022-11-22T16:32:02.620Z,98691.53
2022-11-22T16:34:32.444Z,98705.19
2022-11-22T16:37:00.614Z,98688.25
2022-11-22T16:39:29.297Z,98654.13
2022-11-22T16:41:58.121Z,98714.31
2022-11-22T16:44:26.441Z,98680.66
2022-11-22T16:46:54.858Z,98673.25
2022-11-22T16:49:23.708Z,98699.97
2022-11-22T16:52:12.132Z,98710.53
2022-11-22T16:55:17.104Z,98707.50
2022-11-22T16:57:49.279Z,98689.34
2022-11-22T17:00:28.585Z,98685.84
2022-11-22T17:03:05.621Z,98699.69
2022-11-22T17:05:39.623Z,98688.25
2022-11-22T17:11:03.192Z,98707.53
2022-11-22T17:13:32.916Z,98708.00
2022-11-22T17:16:02.084Z,98709.50
2022-11-22T17:18:30.703Z,98738.00
2022-11-22T17:21:00.227Z,98704.22
2022-11-22T17:23:33.131Z,98737.50
2022-11-22T17:26:01.110Z,98716.22
2022-11-22T17:28:29.113Z,98751.44
2022-11-22T17:33:41.696Z,98735.59
2022-11-22T17:36:21.535Z,98722.25
2022-11-22T17:38:50.813Z,98761.72
2022-11-22T17:41:19.606Z,98763.19
2022-11-22T17:43:50.225Z,98765.50
2022-11-22T17:46:22.307Z,98764.09
2022-11-22T17:49:15.688Z,98745.75
2022-11-22T17:53:12.255Z,98763.19
2022-11-22T17:56:10.123Z,98737.78
2022-11-22T17:59:14.100Z,98774.50
2022-11-22T18:01:43.933Z,98770.66
2022-11-22T18:04:15.193Z,98771.84
2022-11-22T18:06:46.327Z,98740.06
2022-11-22T18:09:22.681Z,98764.91
2022-11-22T18:11:56.258Z,98781.56
2022-11-22T18:14:35.593Z,98770.66
2022-11-22T18:17:08.918Z,98743.91
2022-11-22T18:19:45.019Z,98737.47
2022-11-22T18:22:21.444Z,98759.69
2022-11-22T18:24:53.008Z,98742.53
2022-11-22T18:27:22.573Z,98774.94
2022-11-22T18:29:50.757Z,98776.41
2022-11-22T18:32:18.711Z,98777.63
2022-11-22T18:34:47.709Z,98753.53
2022-11-22T18:37:15.646Z,98764.78
2022-11-22T18:39:43.553Z,98751.16
2022-11-22T18:42:14.629Z,98781.59
2022-11-22T18:44:44.240Z,98782.00
2022-11-22T18:47:12.082Z,98777.16
2022-11-22T18:49:40.060Z,98795.34
2022-11-22T18:52:11.898Z,98795.44
2022-11-22T18:54:43.889Z,98781.88
2022-11-22T18:57:11.835Z,98776.00
2022-11-22T18:59:39.683Z,98791.16
2022-11-22T19:02:09.155Z,98791.09
2022-11-22T19:04:37.357Z,98788.22
2022-11-22T19:07:05.699Z,98784.28
2022-11-22T19:09:33.659Z,98778.72
2022-11-22T19:12:01.775Z,98798.28
2022-11-22T19:14:30.241Z,98802.72
2022-11-22T19:17:01.405Z,98783.63
2022-11-22T19:19:35.411Z,98789.53
2022-11-22T19:22:11.802Z,98777.16
2022-11-22T19:24:47.523Z,98777.16
2022-11-22T19:27:18.175Z,98755.59
2022-11-22T19:29:50.971Z,98753.53
2022-11-22T19:32:19.060Z,98749.53
2022-11-22T19:34:48.394Z,98772.25
2022-11-22T19:37:16.690Z,98797.16
2022-11-22T19:39:44.637Z,98762.47
2022-11-22T19:42:13.102Z,98768.28
2022-11-22T19:44:41.050Z,98796.25
2022-11-22T19:47:09.037Z,98794.03
2022-11-22T19:49:37.058Z,98799.22
2022-11-22T19:52:06.465Z,98794.25
2022-11-22T19:54:34.593Z,98811.22
2022-11-22T19:57:02.496Z,98803.25
2022-11-22T19:59:32.100Z,98812.25
2022-11-22T20:02:02.150Z,98810.06
2022-11-22T20:04:30.219Z,98803.16
2022-11-22T20:06:59.869Z,98823.13
2022-11-22T20:09:29.472Z,98812.44
2022-11-22T20:11:57.610Z,98817.94
2022-11-22T20:14:27.838Z,98824.75
2022-11-22T20:16:56.419Z,98824.91
2022-11-22T20:19:31.142Z,98825.00
2022-11-22T20:22:03.814Z,98825.34
2022-11-22T20:24:34.449Z,98797.44
2022-11-22T20:27:03.707Z,98817.75
2022-11-22T20:29:35.098Z,98816.19
2022-11-22T20:32:05.328Z,98837.44
2022-11-22T20:34:36.892Z,98837.91
2022-11-22T20:37:09.676Z,98832.28
2022-11-22T20:43:21.782Z,98780.19
2022-11-22T20:46:01.654Z,98821.69
2022-11-22T20:48:30.517Z,98806.69
2022-11-22T20:50:59.526Z,98853.50
2022-11-22T20:56:17.726Z,98839.44
2022-11-22T20:58:55.524Z,98834.25
2022-11-22T21:01:28.366Z,98836.13
2022-11-22T21:03:58.690Z,98835.53
2022-11-22T21:06:33.529Z,98881.53
2022-11-22T21:09:06.159Z,98835.53
2022-11-22T21:11:35.628Z,98877.44
2022-11-22T21:14:07.607Z,98845.28
2022-11-22T21:16:39.009Z,98871.78
2022-11-22T21:19:10.033Z,98849.03
2022-11-22T21:21:44.955Z,98857.16
2022-11-22T21:24:23.402Z,98842.81
2022-11-22T21:27:05.426Z,98894.59
2022-11-22T21:29:39.870Z,98849.88
2022-11-22T21:32:22.262Z,98830.84
2022-11-22T21:35:45.891Z,98892.38
2022-11-22T21:38:37.805Z,98890.03
2022-11-22T21:41:39.215Z,98837.63
2022-11-22T21:47:06.061Z,98840.34
2022-11-22T21:49:43.579Z,98888.50
2022-11-22T21:52:29.113Z,98871.34
2022-11-22T21:55:02.375Z,98859.84
2022-11-22T21:57:40.358Z,98894.94
2022-11-22T22:00:18.102Z,98898.13
2022-11-22T22:03:35.764Z,98889.91
2022-11-22T22:06:33.726Z,98904.22
2022-11-22T22:09:08.609Z,98856.31
2022-11-22T22:19:48.250Z,98914.44
2022-11-22T22:25:11.475Z,98907.28
2022-11-22T22:27:41.674Z,98842.13
2022-11-22T22:30:16.568Z,98911.88
2022-11-22T22:32:47.135Z,98905.41
2022-11-22T22:38:25.771Z,98918.81
2022-11-22T22:46:35.185Z,98885.09
2022-11-22T22:49:05.224Z,98928.56
2022-11-22T22:51:37.241Z,98925.03
2022-11-22T22:54:11.757Z,98913.25
2022-11-22T22:56:43.934Z,98920.91
2022-11-22T22:59:15.882Z,98928.88
2022-11-22T23:01:46.803Z,98924.88
2022-11-22T23:04:16.037Z,98874.28
2022-11-22T23:06:45.350Z,98883.78
2022-11-22T23:09:16.319Z,98892.75
2022-11-22T23:14:59.166Z,98931.25
2022-11-22T23:17:34.860Z,98941.78
2022-11-22T23:20:08.493Z,98933.69
2022-11-22T23:22:38.274Z,98860.56
2022-11-22T23:25:09.426Z,98889.06
2022-11-22T23:27:44.447Z,98870.28
2022-11-22T23:30:14.558Z,98922.78
2022-11-22T23:32:45.699Z,98892.13
2022-11-22T23:38:08.571Z,98908.81
2022-11-22T23:40:44.839Z,98912.69
2022-11-22T23:46:18.506Z,98891.88
2022-11-22T23:48:56.722Z,98939.81
2022-11-22T23:51:31.556Z,98911.75
2022-11-22T23:54:02.038Z,98878.84
